sensor_id;sensor_type;location;lat;lon;timestamp;P1;durP1;ratioP1;P2;durP2;ratioP2
40286;SDS011;25998;46.604;13.610;2023-07-20T00:02:16;5.38;;;3.20;;
40286;SDS011;25998;46.604;13.610;2023-07-20T00:05:27;8.50;;;3.20;;
40286;SDS011;25998;46.604;13.610;2023-07-20T00:08:38;7.28;;;3.30;;
40286;SDS011;25998;46.604;13.610;2023-07-20T00:11:49;5.72;;;2.95;;
40286;SDS011;25998;46.604;13.610;2023-07-20T00:15:01;5.43;;;3.35;;
40286;SDS011;25998;46.604;13.610;2023-07-20T00:18:11;5.30;;;2.60;;
40286;SDS011;25998;46.604;13.610;2023-07-20T00:21:23;5.97;;;3.08;;
40286;SDS011;25998;46.604;13.610;2023-07-20T00:24:36;7.38;;;2.97;;
40286;SDS011;25998;46.604;13.610;2023-07-20T00:27:46;6.93;;;3.40;;
40286;SDS011;25998;46.604;13.610;2023-07-20T00:30:59;5.95;;;3.58;;
40286;SDS011;25998;46.604;13.610;2023-07-20T00:34:10;6.82;;;3.58;;
40286;SDS011;25998;46.604;13.610;2023-07-20T00:37:21;6.90;;;3.15;;
40286;SDS011;25998;46.604;13.610;2023-07-20T00:40:38;8.80;;;3.40;;
40286;SDS011;25998;46.604;13.610;2023-07-20T00:43:50;7.88;;;3.78;;
40286;SDS011;25998;46.604;13.610;2023-07-20T00:47:01;5.60;;;3.15;;
40286;SDS011;25998;46.604;13.610;2023-07-20T00:50:11;5.68;;;3.05;;
40286;SDS011;25998;46.604;13.610;2023-07-20T00:53:22;6.18;;;3.53;;
40286;SDS011;25998;46.604;13.610;2023-07-20T00:56:33;8.43;;;3.38;;
40286;SDS011;25998;46.604;13.610;2023-07-20T00:59:44;7.60;;;3.13;;
40286;SDS011;25998;46.604;13.610;2023-07-20T01:02:55;6.30;;;3.65;;
40286;SDS011;25998;46.604;13.610;2023-07-20T01:09:48;6.95;;;3.60;;
40286;SDS011;25998;46.604;13.610;2023-07-20T01:13:15;6.78;;;3.47;;
40286;SDS011;25998;46.604;13.610;2023-07-20T01:16:28;5.93;;;3.30;;
40286;SDS011;25998;46.604;13.610;2023-07-20T01:19:38;5.55;;;3.22;;
40286;SDS011;25998;46.604;13.610;2023-07-20T01:23:01;6.22;;;3.38;;
40286;SDS011;25998;46.604;13.610;2023-07-20T01:26:37;5.25;;;3.08;;
40286;SDS011;25998;46.604;13.610;2023-07-20T01:30:25;6.47;;;3.10;;
40286;SDS011;25998;46.604;13.610;2023-07-20T01:33:45;6.32;;;3.40;;
40286;SDS011;25998;46.604;13.610;2023-07-20T01:36:58;9.23;;;3.40;;
40286;SDS011;25998;46.604;13.610;2023-07-20T01:40:11;6.93;;;3.08;;
40286;SDS011;25998;46.604;13.610;2023-07-20T01:43:25;6.90;;;3.35;;
40286;SDS011;25998;46.604;13.610;2023-07-20T01:46:36;5.72;;;3.28;;
40286;SDS011;25998;46.604;13.610;2023-07-20T01:49:47;9.18;;;3.35;;
40286;SDS011;25998;46.604;13.610;2023-07-20T01:52:58;5.88;;;3.35;;
40286;SDS011;25998;46.604;13.610;2023-07-20T01:56:09;5.38;;;3.10;;
40286;SDS011;25998;46.604;13.610;2023-07-20T01:59:22;4.45;;;3.30;;
40286;SDS011;25998;46.604;13.610;2023-07-20T02:02:33;5.93;;;3.00;;
40286;SDS011;25998;46.604;13.610;2023-07-20T02:05:44;6.07;;;3.63;;
40286;SDS011;25998;46.604;13.610;2023-07-20T02:08:55;5.28;;;3.20;;
40286;SDS011;25998;46.604;13.610;2023-07-20T02:12:06;6.10;;;3.63;;
40286;SDS011;25998;46.604;13.610;2023-07-20T02:15:17;6.82;;;3.17;;
40286;SDS011;25998;46.604;13.610;2023-07-20T02:18:28;7.10;;;3.25;;
40286;SDS011;25998;46.604;13.610;2023-07-20T02:21:39;6.22;;;3.53;;
40286;SDS011;25998;46.604;13.610;2023-07-20T02:24:50;6.65;;;3.38;;
40286;SDS011;25998;46.604;13.610;2023-07-20T02:28:01;6.57;;;3.55;;
40286;SDS011;25998;46.604;13.610;2023-07-20T02:31:12;5.95;;;3.35;;
40286;SDS011;25998;46.604;13.610;2023-07-20T02:34:23;4.72;;;3.38;;
40286;SDS011;25998;46.604;13.610;2023-07-20T02:37:33;7.80;;;3.22;;
40286;SDS011;25998;46.604;13.610;2023-07-20T02:40:44;9.45;;;3.90;;
40286;SDS011;25998;46.604;13.610;2023-07-20T02:43:55;4.40;;;3.15;;
40286;SDS011;25998;46.604;13.610;2023-07-20T02:47:06;6.28;;;3.20;;
40286;SDS011;25998;46.604;13.610;2023-07-20T02:50:17;4.72;;;3.28;;
40286;SDS011;25998;46.604;13.610;2023-07-20T02:53:28;7.72;;;3.75;;
40286;SDS011;25998;46.604;13.610;2023-07-20T02:56:39;6.00;;;3.60;;
40286;SDS011;25998;46.604;13.610;2023-07-20T02:59:50;7.65;;;3.53;;
40286;SDS011;25998;46.604;13.610;2023-07-20T03:03:01;6.05;;;3.35;;
40286;SDS011;25998;46.604;13.610;2023-07-20T03:06:13;8.95;;;3.40;;
40286;SDS011;25998;46.604;13.610;2023-07-20T03:09:24;7.90;;;3.05;;
40286;SDS011;25998;46.604;13.610;2023-07-20T03:12:35;5.72;;;3.30;;
40286;SDS011;25998;46.604;13.610;2023-07-20T03:15:46;4.95;;;3.50;;
40286;SDS011;25998;46.604;13.610;2023-07-20T03:18:57;8.25;;;3.00;;
40286;SDS011;25998;46.604;13.610;2023-07-20T03:22:08;5.00;;;3.65;;
40286;SDS011;25998;46.604;13.610;2023-07-20T03:25:19;7.13;;;3.60;;
40286;SDS011;25998;46.604;13.610;2023-07-20T03:28:31;5.80;;;3.15;;
40286;SDS011;25998;46.604;13.610;2023-07-20T03:31:42;4.82;;;3.35;;
40286;SDS011;25998;46.604;13.610;2023-07-20T03:34:53;5.00;;;3.15;;
40286;SDS011;25998;46.604;13.610;2023-07-20T03:38:03;8.70;;;3.88;;
40286;SDS011;25998;46.604;13.610;2023-07-20T03:41:14;7.97;;;4.10;;
40286;SDS011;25998;46.604;13.610;2023-07-20T03:44:26;7.13;;;3.80;;
40286;SDS011;25998;46.604;13.610;2023-07-20T03:47:37;9.27;;;3.30;;
40286;SDS011;25998;46.604;13.610;2023-07-20T03:50:48;8.68;;;3.95;;
40286;SDS011;25998;46.604;13.610;2023-07-20T03:54:00;7.78;;;3.40;;
40286;SDS011;25998;46.604;13.610;2023-07-20T03:57:11;9.15;;;4.30;;
40286;SDS011;25998;46.604;13.610;2023-07-20T04:00:22;10.38;;;4.05;;
40286;SDS011;25998;46.604;13.610;2023-07-20T04:03:32;9.10;;;3.75;;
40286;SDS011;25998;46.604;13.610;2023-07-20T04:06:43;8.10;;;4.65;;
40286;SDS011;25998;46.604;13.610;2023-07-20T04:09:54;9.82;;;4.85;;
40286;SDS011;25998;46.604;13.610;2023-07-20T04:13:05;7.50;;;3.97;;
40286;SDS011;25998;46.604;13.610;2023-07-20T04:16:17;8.15;;;4.28;;
40286;SDS011;25998;46.604;13.610;2023-07-20T04:19:30;9.30;;;3.67;;
40286;SDS011;25998;46.604;13.610;2023-07-20T04:22:40;6.57;;;3.38;;
40286;SDS011;25998;46.604;13.610;2023-07-20T04:25:51;6.85;;;3.83;;
40286;SDS011;25998;46.604;13.610;2023-07-20T04:29:03;5.88;;;3.38;;
40286;SDS011;25998;46.604;13.610;2023-07-20T04:32:14;5.32;;;3.53;;
40286;SDS011;25998;46.604;13.610;2023-07-20T04:38:55;8.23;;;3.60;;
40286;SDS011;25998;46.604;13.610;2023-07-20T04:42:06;5.25;;;3.50;;
40286;SDS011;25998;46.604;13.610;2023-07-20T04:45:16;16.67;;;5.05;;
40286;SDS011;25998;46.604;13.610;2023-07-20T04:48:29;6.88;;;3.70;;
40286;SDS011;25998;46.604;13.610;2023-07-20T04:51:39;8.57;;;3.67;;
40286;SDS011;25998;46.604;13.610;2023-07-20T04:54:50;10.50;;;4.07;;
40286;SDS011;25998;46.604;13.610;2023-07-20T04:58:01;8.25;;;4.35;;
40286;SDS011;25998;46.604;13.610;2023-07-20T05:01:12;6.07;;;4.00;;
40286;SDS011;25998;46.604;13.610;2023-07-20T05:04:23;5.93;;;4.03;;
40286;SDS011;25998;46.604;13.610;2023-07-20T05:07:34;8.88;;;4.45;;
40286;SDS011;25998;46.604;13.610;2023-07-20T05:10:44;12.38;;;4.35;;
40286;SDS011;25998;46.604;13.610;2023-07-20T05:13:55;9.18;;;4.32;;
40286;SDS011;25998;46.604;13.610;2023-07-20T05:17:06;7.07;;;3.88;;
40286;SDS011;25998;46.604;13.610;2023-07-20T05:20:17;6.43;;;3.78;;
40286;SDS011;25998;46.604;13.610;2023-07-20T05:23:28;9.07;;;4.07;;
40286;SDS011;25998;46.604;13.610;2023-07-20T05:26:39;6.45;;;3.97;;
40286;SDS011;25998;46.604;13.610;2023-07-20T05:29:49;8.35;;;4.25;;
40286;SDS011;25998;46.604;13.610;2023-07-20T05:33:01;10.15;;;4.18;;
40286;SDS011;25998;46.604;13.610;2023-07-20T05:36:12;5.78;;;3.42;;
40286;SDS011;25998;46.604;13.610;2023-07-20T05:39:35;6.50;;;4.15;;
40286;SDS011;25998;46.604;13.610;2023-07-20T05:42:46;6.18;;;3.97;;
40286;SDS011;25998;46.604;13.610;2023-07-20T05:45:59;7.47;;;4.10;;
40286;SDS011;25998;46.604;13.610;2023-07-20T05:49:09;9.57;;;4.47;;
40286;SDS011;25998;46.604;13.610;2023-07-20T05:52:20;8.43;;;4.20;;
40286;SDS011;25998;46.604;13.610;2023-07-20T05:55:31;11.52;;;4.30;;
40286;SDS011;25998;46.604;13.610;2023-07-20T05:58:42;5.88;;;4.18;;
40286;SDS011;25998;46.604;13.610;2023-07-20T06:01:53;6.95;;;4.32;;
40286;SDS011;25998;46.604;13.610;2023-07-20T06:05:03;5.05;;;4.15;;
40286;SDS011;25998;46.604;13.610;2023-07-20T06:08:15;7.22;;;4.60;;
40286;SDS011;25998;46.604;13.610;2023-07-20T06:11:26;5.47;;;3.92;;
40286;SDS011;25998;46.604;13.610;2023-07-20T06:14:37;6.40;;;4.20;;
40286;SDS011;25998;46.604;13.610;2023-07-20T06:17:48;5.53;;;4.47;;
40286;SDS011;25998;46.604;13.610;2023-07-20T06:20:59;8.43;;;5.18;;
40286;SDS011;25998;46.604;13.610;2023-07-20T06:24:10;6.30;;;5.30;;
40286;SDS011;25998;46.604;13.610;2023-07-20T06:27:21;8.63;;;6.07;;
40286;SDS011;25998;46.604;13.610;2023-07-20T06:30:33;8.68;;;5.63;;
40286;SDS011;25998;46.604;13.610;2023-07-20T06:33:45;5.47;;;4.78;;
40286;SDS011;25998;46.604;13.610;2023-07-20T06:36:55;5.28;;;4.78;;
40286;SDS011;25998;46.604;13.610;2023-07-20T06:40:06;7.72;;;4.78;;
40286;SDS011;25998;46.604;13.610;2023-07-20T06:43:19;5.32;;;4.15;;
40286;SDS011;25998;46.604;13.610;2023-07-20T06:46:30;5.07;;;4.50;;
40286;SDS011;25998;46.604;13.610;2023-07-20T06:49:40;10.68;;;5.10;;
40286;SDS011;25998;46.604;13.610;2023-07-20T06:52:51;4.90;;;4.00;;
40286;SDS011;25998;46.604;13.610;2023-07-20T06:56:02;4.80;;;4.22;;
40286;SDS011;25998;46.604;13.610;2023-07-20T06:59:13;8.25;;;4.68;;
40286;SDS011;25998;46.604;13.610;2023-07-20T07:02:24;5.90;;;4.68;;
40286;SDS011;25998;46.604;13.610;2023-07-20T07:05:35;6.07;;;4.43;;
40286;SDS011;25998;46.604;13.610;2023-07-20T07:08:47;7.35;;;5.28;;
40286;SDS011;25998;46.604;13.610;2023-07-20T07:11:58;6.72;;;4.47;;
40286;SDS011;25998;46.604;13.610;2023-07-20T07:15:09;8.30;;;4.80;;
40286;SDS011;25998;46.604;13.610;2023-07-20T07:18:23;7.47;;;4.60;;
40286;SDS011;25998;46.604;13.610;2023-07-20T07:21:35;5.97;;;4.43;;
40286;SDS011;25998;46.604;13.610;2023-07-20T07:24:45;5.75;;;4.20;;
40286;SDS011;25998;46.604;13.610;2023-07-20T07:27:56;5.43;;;3.80;;
40286;SDS011;25998;46.604;13.610;2023-07-20T07:31:07;4.85;;;3.92;;
40286;SDS011;25998;46.604;13.610;2023-07-20T07:34:19;6.35;;;4.07;;
40286;SDS011;25998;46.604;13.610;2023-07-20T07:37:30;4.60;;;3.35;;
40286;SDS011;25998;46.604;13.610;2023-07-20T07:40:40;6.72;;;3.53;;
40286;SDS011;25998;46.604;13.610;2023-07-20T07:43:52;4.97;;;3.70;;
40286;SDS011;25998;46.604;13.610;2023-07-20T07:47:03;6.18;;;3.90;;
40286;SDS011;25998;46.604;13.610;2023-07-20T07:50:14;4.22;;;3.83;;
40286;SDS011;25998;46.604;13.610;2023-07-20T07:53:24;6.35;;;3.63;;
40286;SDS011;25998;46.604;13.610;2023-07-20T07:56:36;5.55;;;4.03;;
40286;SDS011;25998;46.604;13.610;2023-07-20T07:59:47;6.40;;;3.75;;
40286;SDS011;25998;46.604;13.610;2023-07-20T08:02:57;6.25;;;4.20;;
40286;SDS011;25998;46.604;13.610;2023-07-20T08:06:08;7.80;;;4.00;;
40286;SDS011;25998;46.604;13.610;2023-07-20T08:09:19;6.63;;;3.83;;
40286;SDS011;25998;46.604;13.610;2023-07-20T08:12:30;6.90;;;4.20;;
40286;SDS011;25998;46.604;13.610;2023-07-20T08:15:48;5.20;;;4.05;;
40286;SDS011;25998;46.604;13.610;2023-07-20T08:19:04;6.22;;;3.65;;
40286;SDS011;25998;46.604;13.610;2023-07-20T08:22:15;6.05;;;4.22;;
40286;SDS011;25998;46.604;13.610;2023-07-20T08:25:25;5.40;;;3.72;;
40286;SDS011;25998;46.604;13.610;2023-07-20T08:28:36;5.25;;;4.05;;
40286;SDS011;25998;46.604;13.610;2023-07-20T08:31:48;5.32;;;3.92;;
40286;SDS011;25998;46.604;13.610;2023-07-20T08:34:58;8.18;;;4.00;;
40286;SDS011;25998;46.604;13.610;2023-07-20T08:38:09;4.65;;;3.60;;
40286;SDS011;25998;46.604;13.610;2023-07-20T08:41:20;5.60;;;4.10;;
40286;SDS011;25998;46.604;13.610;2023-07-20T08:44:32;4.75;;;3.72;;
40286;SDS011;25998;46.604;13.610;2023-07-20T08:47:44;6.55;;;4.05;;
40286;SDS011;25998;46.604;13.610;2023-07-20T08:50:57;6.95;;;3.83;;
40286;SDS011;25998;46.604;13.610;2023-07-20T08:54:10;6.45;;;3.80;;
40286;SDS011;25998;46.604;13.610;2023-07-20T08:57:22;7.82;;;4.28;;
40286;SDS011;25998;46.604;13.610;2023-07-20T09:00:33;5.53;;;4.13;;
40286;SDS011;25998;46.604;13.610;2023-07-20T09:03:46;7.40;;;4.00;;
40286;SDS011;25998;46.604;13.610;2023-07-20T09:06:57;6.22;;;3.88;;
40286;SDS011;25998;46.604;13.610;2023-07-20T09:10:08;5.57;;;3.50;;
40286;SDS011;25998;46.604;13.610;2023-07-20T09:13:20;4.32;;;3.85;;
40286;SDS011;25998;46.604;13.610;2023-07-20T09:16:31;5.80;;;4.10;;
40286;SDS011;25998;46.604;13.610;2023-07-20T09:19:46;5.20;;;3.45;;
40286;SDS011;25998;46.604;13.610;2023-07-20T09:22:57;4.57;;;3.40;;
40286;SDS011;25998;46.604;13.610;2023-07-20T09:26:11;3.92;;;3.53;;
40286;SDS011;25998;46.604;13.610;2023-07-20T09:29:24;5.20;;;3.60;;
40286;SDS011;25998;46.604;13.610;2023-07-20T09:32:38;4.90;;;3.60;;
40286;SDS011;25998;46.604;13.610;2023-07-20T09:35:53;5.63;;;3.70;;
40286;SDS011;25998;46.604;13.610;2023-07-20T09:39:04;6.30;;;3.63;;
40286;SDS011;25998;46.604;13.610;2023-07-20T09:42:15;6.63;;;3.80;;
40286;SDS011;25998;46.604;13.610;2023-07-20T09:45:29;7.25;;;3.70;;
40286;SDS011;25998;46.604;13.610;2023-07-20T09:48:51;7.05;;;4.22;;
40286;SDS011;25998;46.604;13.610;2023-07-20T09:52:06;6.10;;;4.28;;
40286;SDS011;25998;46.604;13.610;2023-07-20T09:55:20;6.53;;;3.50;;
40286;SDS011;25998;46.604;13.610;2023-07-20T09:58:33;5.05;;;3.42;;
40286;SDS011;25998;46.604;13.610;2023-07-20T10:01:45;6.15;;;3.80;;
40286;SDS011;25998;46.604;13.610;2023-07-20T10:04:57;4.72;;;3.97;;
40286;SDS011;25998;46.604;13.610;2023-07-20T10:08:13;6.07;;;4.10;;
40286;SDS011;25998;46.604;13.610;2023-07-20T10:11:26;4.68;;;3.78;;
40286;SDS011;25998;46.604;13.610;2023-07-20T10:14:42;5.05;;;3.90;;
40286;SDS011;25998;46.604;13.610;2023-07-20T10:21:22;5.85;;;4.47;;
40286;SDS011;25998;46.604;13.610;2023-07-20T10:24:33;7.68;;;4.85;;
40286;SDS011;25998;46.604;13.610;2023-07-20T10:27:45;6.82;;;4.50;;
40286;SDS011;25998;46.604;13.610;2023-07-20T10:30:57;5.82;;;3.80;;
40286;SDS011;25998;46.604;13.610;2023-07-20T10:34:07;6.00;;;4.30;;
40286;SDS011;25998;46.604;13.610;2023-07-20T10:41:02;7.03;;;4.45;;
40286;SDS011;25998;46.604;13.610;2023-07-20T10:44:13;4.65;;;4.10;;
40286;SDS011;25998;46.604;13.610;2023-07-20T10:47:29;6.35;;;4.47;;
40286;SDS011;25998;46.604;13.610;2023-07-20T10:51:10;5.78;;;4.38;;
40286;SDS011;25998;46.604;13.610;2023-07-20T10:57:38;4.75;;;4.05;;
40286;SDS011;25998;46.604;13.610;2023-07-20T11:04:13;4.60;;;3.72;;
40286;SDS011;25998;46.604;13.610;2023-07-20T11:07:36;4.88;;;4.18;;
40286;SDS011;25998;46.604;13.610;2023-07-20T11:11:13;5.32;;;4.32;;
40286;SDS011;25998;46.604;13.610;2023-07-20T11:14:41;6.68;;;4.50;;
40286;SDS011;25998;46.604;13.610;2023-07-20T11:18:13;6.35;;;4.28;;
40286;SDS011;25998;46.604;13.610;2023-07-20T11:21:24;6.90;;;4.47;;
40286;SDS011;25998;46.604;13.610;2023-07-20T11:24:39;4.80;;;4.30;;
40286;SDS011;25998;46.604;13.610;2023-07-20T11:27:50;6.25;;;4.25;;
40286;SDS011;25998;46.604;13.610;2023-07-20T11:31:02;5.30;;;4.30;;
40286;SDS011;25998;46.604;13.610;2023-07-20T11:34:14;6.15;;;4.85;;
40286;SDS011;25998;46.604;13.610;2023-07-20T11:37:26;5.65;;;4.28;;
40286;SDS011;25998;46.604;13.610;2023-07-20T11:40:41;5.82;;;4.20;;
40286;SDS011;25998;46.604;13.610;2023-07-20T11:43:56;4.97;;;4.40;;
40286;SDS011;25998;46.604;13.610;2023-07-20T11:47:08;4.88;;;4.32;;
40286;SDS011;25998;46.604;13.610;2023-07-20T11:50:20;6.35;;;4.53;;
40286;SDS011;25998;46.604;13.610;2023-07-20T11:53:31;7.35;;;4.88;;
40286;SDS011;25998;46.604;13.610;2023-07-20T11:56:45;6.05;;;4.00;;
40286;SDS011;25998;46.604;13.610;2023-07-20T12:00:02;5.63;;;4.45;;
40286;SDS011;25998;46.604;13.610;2023-07-20T12:03:15;7.15;;;4.50;;
40286;SDS011;25998;46.604;13.610;2023-07-20T12:06:28;6.97;;;4.05;;
40286;SDS011;25998;46.604;13.610;2023-07-20T12:09:39;4.65;;;3.92;;
40286;SDS011;25998;46.604;13.610;2023-07-20T12:12:50;5.20;;;4.20;;
40286;SDS011;25998;46.604;13.610;2023-07-20T12:16:06;5.93;;;4.47;;
40286;SDS011;25998;46.604;13.610;2023-07-20T12:19:25;5.72;;;3.92;;
40286;SDS011;25998;46.604;13.610;2023-07-20T12:22:39;5.20;;;4.25;;
40286;SDS011;25998;46.604;13.610;2023-07-20T12:25:53;6.43;;;4.03;;
40286;SDS011;25998;46.604;13.610;2023-07-20T12:29:07;7.72;;;4.40;;
40286;SDS011;25998;46.604;13.610;2023-07-20T12:32:17;4.53;;;4.10;;
40286;SDS011;25998;46.604;13.610;2023-07-20T12:35:29;5.05;;;4.55;;
40286;SDS011;25998;46.604;13.610;2023-07-20T12:38:40;6.78;;;4.57;;
40286;SDS011;25998;46.604;13.610;2023-07-20T12:41:51;5.22;;;4.72;;
40286;SDS011;25998;46.604;13.610;2023-07-20T12:45:02;6.20;;;4.60;;
40286;SDS011;25998;46.604;13.610;2023-07-20T12:48:14;5.93;;;4.40;;
40286;SDS011;25998;46.604;13.610;2023-07-20T12:51:25;6.28;;;4.28;;
40286;SDS011;25998;46.604;13.610;2023-07-20T12:54:36;7.22;;;4.38;;
40286;SDS011;25998;46.604;13.610;2023-07-20T12:57:46;6.07;;;4.30;;
40286;SDS011;25998;46.604;13.610;2023-07-20T13:00:57;4.43;;;3.88;;
40286;SDS011;25998;46.604;13.610;2023-07-20T13:04:08;7.32;;;5.03;;
40286;SDS011;25998;46.604;13.610;2023-07-20T13:07:28;5.65;;;4.20;;
40286;SDS011;25998;46.604;13.610;2023-07-20T13:10:49;5.32;;;4.82;;
40286;SDS011;25998;46.604;13.610;2023-07-20T13:14:01;6.38;;;4.68;;
40286;SDS011;25998;46.604;13.610;2023-07-20T13:17:12;5.05;;;4.50;;
40286;SDS011;25998;46.604;13.610;2023-07-20T13:20:23;8.00;;;5.22;;
40286;SDS011;25998;46.604;13.610;2023-07-20T13:23:34;5.93;;;4.38;;
40286;SDS011;25998;46.604;13.610;2023-07-20T13:26:45;4.93;;;4.03;;
40286;SDS011;25998;46.604;13.610;2023-07-20T13:29:55;5.82;;;4.65;;
40286;SDS011;25998;46.604;13.610;2023-07-20T13:33:06;4.68;;;4.28;;
40286;SDS011;25998;46.604;13.610;2023-07-20T13:36:17;6.13;;;4.60;;
40286;SDS011;25998;46.604;13.610;2023-07-20T13:39:28;5.13;;;4.28;;
40286;SDS011;25998;46.604;13.610;2023-07-20T13:42:39;4.90;;;4.32;;
40286;SDS011;25998;46.604;13.610;2023-07-20T13:45:52;5.18;;;4.22;;
40286;SDS011;25998;46.604;13.610;2023-07-20T13:49:03;5.10;;;4.00;;
40286;SDS011;25998;46.604;13.610;2023-07-20T13:52:14;7.72;;;4.25;;
40286;SDS011;25998;46.604;13.610;2023-07-20T13:55:25;6.32;;;4.25;;
40286;SDS011;25998;46.604;13.610;2023-07-20T13:58:37;7.35;;;4.45;;
40286;SDS011;25998;46.604;13.610;2023-07-20T14:01:48;5.53;;;4.30;;
40286;SDS011;25998;46.604;13.610;2023-07-20T14:04:59;6.57;;;4.40;;
40286;SDS011;25998;46.604;13.610;2023-07-20T14:08:10;5.47;;;4.63;;
40286;SDS011;25998;46.604;13.610;2023-07-20T14:11:21;6.50;;;4.50;;
40286;SDS011;25998;46.604;13.610;2023-07-20T14:14:31;5.30;;;4.07;;
40286;SDS011;25998;46.604;13.610;2023-07-20T14:17:42;5.25;;;4.40;;
40286;SDS011;25998;46.604;13.610;2023-07-20T14:20:53;6.35;;;4.20;;
40286;SDS011;25998;46.604;13.610;2023-07-20T14:24:04;4.90;;;4.32;;
40286;SDS011;25998;46.604;13.610;2023-07-20T14:27:15;6.18;;;4.75;;
40286;SDS011;25998;46.604;13.610;2023-07-20T14:30:26;5.15;;;4.60;;
40286;SDS011;25998;46.604;13.610;2023-07-20T14:33:37;5.50;;;4.38;;
40286;SDS011;25998;46.604;13.610;2023-07-20T14:36:48;4.75;;;3.95;;
40286;SDS011;25998;46.604;13.610;2023-07-20T14:40:00;7.75;;;4.68;;
40286;SDS011;25998;46.604;13.610;2023-07-20T14:43:11;4.75;;;3.90;;
40286;SDS011;25998;46.604;13.610;2023-07-20T14:46:22;6.00;;;4.30;;
40286;SDS011;25998;46.604;13.610;2023-07-20T14:49:32;5.40;;;4.18;;
40286;SDS011;25998;46.604;13.610;2023-07-20T14:52:43;6.20;;;4.40;;
40286;SDS011;25998;46.604;13.610;2023-07-20T14:55:58;6.95;;;4.47;;
40286;SDS011;25998;46.604;13.610;2023-07-20T14:59:10;4.35;;;3.60;;
40286;SDS011;25998;46.604;13.610;2023-07-20T15:02:20;5.88;;;4.38;;
40286;SDS011;25998;46.604;13.610;2023-07-20T15:05:31;7.68;;;4.43;;
40286;SDS011;25998;46.604;13.610;2023-07-20T15:08:43;7.13;;;4.43;;
40286;SDS011;25998;46.604;13.610;2023-07-20T15:11:54;5.95;;;4.90;;
40286;SDS011;25998;46.604;13.610;2023-07-20T15:15:05;6.82;;;4.75;;
40286;SDS011;25998;46.604;13.610;2023-07-20T15:18:17;5.78;;;4.30;;
40286;SDS011;25998;46.604;13.610;2023-07-20T15:21:28;5.53;;;4.28;;
40286;SDS011;25998;46.604;13.610;2023-07-20T15:24:40;4.40;;;4.00;;
40286;SDS011;25998;46.604;13.610;2023-07-20T15:27:51;5.43;;;4.32;;
40286;SDS011;25998;46.604;13.610;2023-07-20T15:31:02;5.57;;;4.68;;
40286;SDS011;25998;46.604;13.610;2023-07-20T15:34:14;6.28;;;4.07;;
40286;SDS011;25998;46.604;13.610;2023-07-20T15:37:25;5.63;;;4.07;;
40286;SDS011;25998;46.604;13.610;2023-07-20T15:40:36;6.32;;;4.22;;
40286;SDS011;25998;46.604;13.610;2023-07-20T15:43:47;5.28;;;4.07;;
40286;SDS011;25998;46.604;13.610;2023-07-20T15:46:58;5.38;;;4.47;;
40286;SDS011;25998;46.604;13.610;2023-07-20T15:50:09;5.18;;;4.03;;
40286;SDS011;25998;46.604;13.610;2023-07-20T15:53:20;5.50;;;4.28;;
40286;SDS011;25998;46.604;13.610;2023-07-20T15:56:31;5.03;;;4.35;;
40286;SDS011;25998;46.604;13.610;2023-07-20T15:59:42;5.70;;;4.05;;
40286;SDS011;25998;46.604;13.610;2023-07-20T16:02:53;5.25;;;4.47;;
40286;SDS011;25998;46.604;13.610;2023-07-20T16:06:04;6.82;;;4.50;;
40286;SDS011;25998;46.604;13.610;2023-07-20T16:09:15;6.05;;;4.45;;
40286;SDS011;25998;46.604;13.610;2023-07-20T16:12:26;5.35;;;4.22;;
40286;SDS011;25998;46.604;13.610;2023-07-20T16:15:40;4.97;;;4.47;;
40286;SDS011;25998;46.604;13.610;2023-07-20T16:18:50;6.70;;;5.10;;
40286;SDS011;25998;46.604;13.610;2023-07-20T16:22:03;5.93;;;4.50;;
40286;SDS011;25998;46.604;13.610;2023-07-20T16:25:15;6.63;;;4.63;;
40286;SDS011;25998;46.604;13.610;2023-07-20T16:28:26;7.57;;;4.65;;
40286;SDS011;25998;46.604;13.610;2023-07-20T16:31:36;6.13;;;4.32;;
40286;SDS011;25998;46.604;13.610;2023-07-20T16:34:47;5.80;;;5.05;;
40286;SDS011;25998;46.604;13.610;2023-07-20T16:37:58;5.72;;;5.03;;
40286;SDS011;25998;46.604;13.610;2023-07-20T16:41:11;5.90;;;4.70;;
40286;SDS011;25998;46.604;13.610;2023-07-20T16:44:22;6.18;;;4.38;;
40286;SDS011;25998;46.604;13.610;2023-07-20T16:47:33;6.25;;;4.82;;
40286;SDS011;25998;46.604;13.610;2023-07-20T16:50:44;5.65;;;4.15;;
40286;SDS011;25998;46.604;13.610;2023-07-20T16:53:55;7.43;;;4.72;;
40286;SDS011;25998;46.604;13.610;2023-07-20T16:57:07;5.90;;;4.03;;
40286;SDS011;25998;46.604;13.610;2023-07-20T17:00:19;5.22;;;3.85;;
40286;SDS011;25998;46.604;13.610;2023-07-20T17:03:30;5.88;;;3.90;;
40286;SDS011;25998;46.604;13.610;2023-07-20T17:06:41;4.72;;;3.95;;
40286;SDS011;25998;46.604;13.610;2023-07-20T17:09:52;5.00;;;4.18;;
40286;SDS011;25998;46.604;13.610;2023-07-20T17:13:03;6.80;;;3.95;;
40286;SDS011;25998;46.604;13.610;2023-07-20T17:16:15;5.90;;;3.60;;
40286;SDS011;25998;46.604;13.610;2023-07-20T17:19:26;5.90;;;4.05;;
40286;SDS011;25998;46.604;13.610;2023-07-20T17:22:37;5.95;;;3.90;;
40286;SDS011;25998;46.604;13.610;2023-07-20T17:25:49;6.07;;;4.05;;
40286;SDS011;25998;46.604;13.610;2023-07-20T17:28:59;6.43;;;4.00;;
40286;SDS011;25998;46.604;13.610;2023-07-20T17:32:11;4.47;;;3.80;;
40286;SDS011;25998;46.604;13.610;2023-07-20T17:35:22;5.57;;;4.32;;
40286;SDS011;25998;46.604;13.610;2023-07-20T17:38:33;5.28;;;4.13;;
40286;SDS011;25998;46.604;13.610;2023-07-20T17:41:44;5.55;;;4.03;;
40286;SDS011;25998;46.604;13.610;2023-07-20T17:44:55;6.70;;;3.90;;
40286;SDS011;25998;46.604;13.610;2023-07-20T17:48:06;6.70;;;3.92;;
40286;SDS011;25998;46.604;13.610;2023-07-20T17:51:17;4.88;;;3.47;;
40286;SDS011;25998;46.604;13.610;2023-07-20T17:54:28;5.05;;;3.70;;
40286;SDS011;25998;46.604;13.610;2023-07-20T17:57:39;5.35;;;3.50;;
40286;SDS011;25998;46.604;13.610;2023-07-20T18:00:50;4.93;;;3.72;;
40286;SDS011;25998;46.604;13.610;2023-07-20T18:04:02;9.77;;;4.50;;
40286;SDS011;25998;46.604;13.610;2023-07-20T18:07:13;5.20;;;3.45;;
40286;SDS011;25998;46.604;13.610;2023-07-20T18:10:25;4.40;;;3.80;;
40286;SDS011;25998;46.604;13.610;2023-07-20T18:13:36;4.88;;;3.70;;
40286;SDS011;25998;46.604;13.610;2023-07-20T18:16:47;5.43;;;3.95;;
40286;SDS011;25998;46.604;13.610;2023-07-20T18:19:57;4.80;;;3.55;;
40286;SDS011;25998;46.604;13.610;2023-07-20T18:23:08;5.78;;;3.97;;
40286;SDS011;25998;46.604;13.610;2023-07-20T18:26:19;6.22;;;3.30;;
40286;SDS011;25998;46.604;13.610;2023-07-20T18:29:30;5.00;;;3.47;;
40286;SDS011;25998;46.604;13.610;2023-07-20T18:32:40;4.30;;;3.80;;
40286;SDS011;25998;46.604;13.610;2023-07-20T18:35:52;5.07;;;4.00;;
40286;SDS011;25998;46.604;13.610;2023-07-20T18:39:04;4.80;;;4.05;;
40286;SDS011;25998;46.604;13.610;2023-07-20T18:42:14;4.90;;;3.80;;
40286;SDS011;25998;46.604;13.610;2023-07-20T18:45:27;6.35;;;4.03;;
40286;SDS011;25998;46.604;13.610;2023-07-20T18:48:38;4.60;;;3.97;;
40286;SDS011;25998;46.604;13.610;2023-07-20T18:51:48;5.53;;;4.13;;
40286;SDS011;25998;46.604;13.610;2023-07-20T18:54:59;9.38;;;4.22;;
40286;SDS011;25998;46.604;13.610;2023-07-20T18:58:10;4.63;;;3.97;;
40286;SDS011;25998;46.604;13.610;2023-07-20T19:01:21;5.22;;;4.15;;
40286;SDS011;25998;46.604;13.610;2023-07-20T19:04:32;4.93;;;3.95;;
40286;SDS011;25998;46.604;13.610;2023-07-20T19:07:44;5.45;;;4.60;;
40286;SDS011;25998;46.604;13.610;2023-07-20T19:10:59;5.57;;;4.13;;
40286;SDS011;25998;46.604;13.610;2023-07-20T19:14:13;6.43;;;3.95;;
40286;SDS011;25998;46.604;13.610;2023-07-20T19:17:24;5.00;;;3.97;;
40286;SDS011;25998;46.604;13.610;2023-07-20T19:20:36;7.00;;;4.35;;